FNHU/NOV METAR and TAF weather

Enter ICAO airport designator
Station Type Date Time Source
FNHU METAR 2018/04/23 11:00 UTC NOAA

FNHU 231100Z 12012KT 9999 SCT014 25/11 Q1023


Station Type Date Time Source
FNHU Decoded METAR 2018/04/23 11:00 UTC NOAA

Huambo Nova Lisboa , Angola (FNHU) 12-48S 015-45E 1701M
Apr 23, 2018 - 07:00 AM EDT / 2018.04.23 1100 UTC
Wind: from the ESE (120 degrees) at 14 MPH (12 KT):0
Visibility: greater than 7 mile(s):0
Sky conditions: partly cloudy
Temperature: 77 F (25 C)
Dew Point: 51 F (11 C)
Relative Humidity: 41%
Pressure (altimeter): 30.21 in. Hg (1023 hPa)
ob: FNHU 231100Z 12012KT 9999 SCT014 25/11 Q1023
cycle: 11

Station Type Date Time Source
FNHU TAF 2018/04/23 12:33 UTC NOAA

TAF TAF FNHU 231030Z 2312/2324 08007KT 9999 FEW012
TEMPO 2314/2318 14006KT CAVOK


Example: see airport list